Kwajalein/Bucholz, Marshall Islands
Current Conditions -  °F | °C
As of 5:00 PM on Sunday 26 Oct 2014 (Local Time) from PKWA Reporting Station
Scattered Clouds Scattered Clouds  
Wind Chill: 87°   Ceiling: Unl
Heat Index: 97°   Visibility: 10mi
Dew Point: 76°   Wind: 12mph
Humidity: 70%   Direction: 90°E
Pressure: 29.75"   Gusts: NA
Location:  8.73°N, 167.73°E
Report Text: PKWA 260500Z AUTO 09010KT 10SM SCT021 31/24 A2975 RMK AO2 T03050244
Loading
Personal Weather Stations






























Interactive Weather Map
Tropical Storm Tracking
New forecast layout! Learn more

10-Day Weather Forecast

Advertisements
Track Severe Weather on mobile